Terminal Aerodrome Forecast
Issued by NWS

Home | Current Version | Previous Version | Text Only | Print | Product List | Glossary On
Versions: 1 2 3 4 5 6 7 8 9 10 11 12 13 14 15 16 17 18 19 20 21 22 23 24 25 26 27 28 29 30 31
051
FTUS43 KLOT 301120
TAFORD
TAF
KORD 301120Z 3012/3118 27005KT P6SM SCT050
     FM301500 29007KT P6SM SCT060
     FM302100 07010KT P6SM SKC
     FM310500 12005KT P6SM SCT120
     FM311500 15008KT P6SM SCT050=

USA.gov is the U.S. government's official web portal to all federal, state and local government web resources and services.